createdAt,value
2024-03-16T00:00:05.638Z,27.54
2024-03-16T00:01:05.708Z,27.54
2024-03-16T00:02:05.686Z,27.53
2024-03-16T00:03:05.720Z,27.53
2024-03-16T00:04:05.916Z,27.52
2024-03-16T00:05:05.774Z,27.53
2024-03-16T00:06:05.738Z,27.52
2024-03-16T00:07:05.866Z,27.53
2024-03-16T00:08:05.816Z,27.52
2024-03-16T00:09:05.958Z,27.52
2024-03-16T00:10:05.824Z,27.53
2024-03-16T00:11:05.813Z,27.53
2024-03-16T00:12:05.827Z,27.53
2024-03-16T00:13:05.985Z,27.53
2024-03-16T00:14:05.880Z,27.50
2024-03-16T00:15:05.859Z,27.52
2024-03-16T00:16:05.996Z,27.52
2024-03-16T00:17:05.944Z,27.53
2024-03-16T00:18:05.951Z,27.50
2024-03-16T00:19:06.002Z,27.53
2024-03-16T00:20:05.958Z,27.53
2024-03-16T00:21:05.978Z,27.52
2024-03-16T00:22:06.107Z,27.52
2024-03-16T00:23:06.045Z,27.52
2024-03-16T00:24:06.081Z,27.50
2024-03-16T00:25:06.104Z,27.50
2024-03-16T00:26:06.168Z,27.52
2024-03-16T00:27:06.085Z,27.50
2024-03-16T00:28:06.237Z,27.52
2024-03-16T00:29:06.101Z,27.50
2024-03-16T00:30:06.185Z,27.53
2024-03-16T00:31:07.413Z,27.49
2024-03-16T00:32:06.212Z,27.50
2024-03-16T00:33:06.215Z,27.49
2024-03-16T00:34:06.358Z,27.49
2024-03-16T00:35:06.247Z,27.50
2024-03-16T00:36:06.322Z,27.49
2024-03-16T00:37:06.503Z,27.50
2024-03-16T00:38:06.310Z,27.48
2024-03-16T00:39:06.363Z,27.50
2024-03-16T00:40:06.472Z,27.48
2024-03-16T00:41:06.367Z,27.48
2024-03-16T00:42:06.412Z,27.46
2024-03-16T00:43:06.547Z,27.48
2024-03-16T00:44:06.421Z,27.48
2024-03-16T00:45:06.500Z,27.46
2024-03-16T00:46:06.717Z,27.48
2024-03-16T00:47:06.551Z,27.46
2024-03-16T00:48:06.590Z,27.45
2024-03-16T00:49:06.807Z,27.48
2024-03-16T00:50:06.537Z,27.48
2024-03-16T00:51:06.565Z,27.45
2024-03-16T00:52:06.754Z,27.48
2024-03-16T00:53:06.579Z,27.46
2024-03-16T00:54:06.658Z,27.48
2024-03-16T00:55:06.710Z,27.46
2024-03-16T00:56:06.675Z,27.46
2024-03-16T00:57:06.679Z,27.45
2024-03-16T00:58:06.943Z,27.46
2024-03-16T00:59:06.854Z,27.46
2024-03-16T01:00:06.778Z,27.48
2024-03-16T01:01:07.000Z,27.45
2024-03-16T01:02:06.867Z,27.48
2024-03-16T01:03:06.949Z,27.46
2024-03-16T01:04:07.070Z,27.45
2024-03-16T01:05:06.932Z,27.42
2024-03-16T01:06:06.952Z,27.43
2024-03-16T01:07:07.017Z,27.42
2024-03-16T01:08:06.940Z,27.42
2024-03-16T01:09:07.048Z,27.42
2024-03-16T01:10:07.189Z,27.43
2024-03-16T01:11:07.285Z,27.40
2024-03-16T01:12:07.097Z,27.40
2024-03-16T01:13:07.162Z,27.43
2024-03-16T01:14:07.122Z,27.40
2024-03-16T01:15:07.145Z,27.40
2024-03-16T01:16:07.253Z,27.42
2024-03-16T01:17:07.250Z,27.42
2024-03-16T01:18:07.295Z,27.42
2024-03-16T01:19:07.559Z,27.40
2024-03-16T01:20:07.253Z,27.42
2024-03-16T01:21:07.389Z,27.45
2024-03-16T01:22:07.387Z,27.42
2024-03-16T01:23:07.359Z,27.42
2024-03-16T01:24:07.341Z,27.40
2024-03-16T01:25:07.496Z,27.43
2024-03-16T01:26:07.498Z,27.42
2024-03-16T01:27:07.411Z,27.40
2024-03-16T01:28:07.574Z,27.42
2024-03-16T01:29:07.531Z,27.42
2024-03-16T01:30:08.332Z,27.42
2024-03-16T01:31:07.562Z,27.40
2024-03-16T01:32:07.563Z,27.40
2024-03-16T01:33:07.610Z,27.42
2024-03-16T01:34:07.685Z,27.42
2024-03-16T01:35:07.662Z,27.40
2024-03-16T01:36:07.701Z,27.42
2024-03-16T01:37:07.747Z,27.42
2024-03-16T01:38:07.862Z,27.40
2024-03-16T01:39:07.771Z,27.40
2024-03-16T01:40:08.014Z,27.39
2024-03-16T01:41:07.812Z,27.40
2024-03-16T01:42:07.833Z,27.40
2024-03-16T01:43:07.997Z,27.40
2024-03-16T01:44:07.923Z,27.40
2024-03-16T01:45:08.083Z,27.39
2024-03-16T01:46:08.071Z,27.39
2024-03-16T01:47:08.838Z,27.38
2024-03-16T01:48:08.015Z,27.38
2024-03-16T01:49:08.137Z,27.40
2024-03-16T01:50:08.111Z,27.39
2024-03-16T01:51:08.456Z,27.40
2024-03-16T01:52:08.147Z,27.35
2024-03-16T01:53:08.138Z,27.36
2024-03-16T01:54:08.279Z,27.36
2024-03-16T01:55:08.381Z,27.36
2024-03-16T01:56:08.210Z,27.36
2024-03-16T01:57:08.303Z,27.35
2024-03-16T01:58:08.615Z,27.35
2024-03-16T01:59:08.292Z,27.36
2024-03-16T02:00:08.359Z,27.33
2024-03-16T02:01:08.434Z,27.35
2024-03-16T02:02:08.465Z,27.35
2024-03-16T02:03:08.456Z,27.33
2024-03-16T02:04:08.486Z,27.33
2024-03-16T02:05:08.506Z,27.35
2024-03-16T02:06:08.508Z,27.36
2024-03-16T02:07:08.592Z,27.35
2024-03-16T02:08:08.545Z,27.35
2024-03-16T02:09:08.643Z,27.33
2024-03-16T02:10:08.748Z,27.33
2024-03-16T02:11:08.681Z,27.33
2024-03-16T02:12:08.728Z,27.33
2024-03-16T02:13:08.787Z,27.35
2024-03-16T02:14:08.762Z,27.33
2024-03-16T02:15:08.814Z,27.32
2024-03-16T02:16:08.902Z,27.33
2024-03-16T02:17:08.858Z,27.33
2024-03-16T02:18:08.930Z,27.33
2024-03-16T02:19:08.995Z,27.33
2024-03-16T02:20:08.952Z,27.33
2024-03-16T02:21:08.988Z,27.35
2024-03-16T02:22:09.058Z,27.32
2024-03-16T02:23:09.082Z,27.33
2024-03-16T02:24:09.142Z,27.32
2024-03-16T02:25:09.287Z,27.33
2024-03-16T02:26:09.206Z,27.32
2024-03-16T02:27:09.249Z,27.30
2024-03-16T02:28:09.423Z,27.32
2024-03-16T02:29:09.282Z,27.32
2024-03-16T02:30:09.357Z,27.33
2024-03-16T02:31:09.407Z,27.35
2024-03-16T02:32:09.379Z,27.33
2024-03-16T02:33:09.472Z,27.32
2024-03-16T02:34:09.603Z,27.33
2024-03-16T02:35:09.525Z,27.35
2024-03-16T02:36:09.552Z,27.33
2024-03-16T02:37:09.670Z,27.33
2024-03-16T02:38:09.610Z,27.30
2024-03-16T02:39:09.698Z,27.32
2024-03-16T02:40:09.756Z,27.32
2024-03-16T02:41:09.754Z,27.32
2024-03-16T02:42:09.761Z,27.33
2024-03-16T02:43:09.813Z,27.32
2024-03-16T02:44:09.924Z,27.30
2024-03-16T02:45:09.820Z,27.29
2024-03-16T02:46:09.906Z,27.30
2024-03-16T02:47:09.947Z,27.30
2024-03-16T02:48:09.983Z,27.29
2024-03-16T02:49:10.040Z,27.29
2024-03-16T02:50:10.024Z,27.30
2024-03-16T02:51:10.080Z,27.29
2024-03-16T02:52:10.230Z,27.30
2024-03-16T02:53:10.137Z,27.26
2024-03-16T02:54:10.193Z,27.29
2024-03-16T02:55:10.297Z,27.30
2024-03-16T02:56:10.227Z,27.29
2024-03-16T02:57:10.272Z,27.28
2024-03-16T02:58:10.358Z,27.30
2024-03-16T02:59:10.367Z,27.29
2024-03-16T03:00:10.379Z,27.30
2024-03-16T03:01:10.546Z,27.28
2024-03-16T03:02:10.460Z,27.30
2024-03-16T03:03:10.513Z,27.29
2024-03-16T03:04:10.606Z,27.29
2024-03-16T03:05:10.567Z,27.28
2024-03-16T03:06:10.649Z,27.29
2024-03-16T03:07:10.715Z,27.29
2024-03-16T03:08:10.699Z,27.26
2024-03-16T03:09:10.699Z,27.28
2024-03-16T03:10:10.855Z,27.29
2024-03-16T03:11:10.777Z,27.28
2024-03-16T03:12:10.836Z,27.28
2024-03-16T03:13:10.939Z,27.29
2024-03-16T03:14:10.859Z,27.26
2024-03-16T03:15:10.946Z,27.28
2024-03-16T03:16:11.003Z,27.25
2024-03-16T03:17:10.962Z,27.26
2024-03-16T03:18:11.066Z,27.29
2024-03-16T03:19:11.285Z,27.28
2024-03-16T03:20:11.621Z,27.28
2024-03-16T03:21:11.155Z,27.29
2024-03-16T03:22:11.237Z,27.28
2024-03-16T03:23:11.254Z,27.29
2024-03-16T03:24:11.251Z,27.28
2024-03-16T03:25:11.674Z,27.26
2024-03-16T03:26:11.326Z,27.28
2024-03-16T03:27:11.390Z,27.26
2024-03-16T03:28:11.466Z,27.26
2024-03-16T03:29:11.426Z,27.26
2024-03-16T03:30:11.494Z,27.26
2024-03-16T03:31:11.549Z,27.25
2024-03-16T03:32:11.559Z,27.26
2024-03-16T03:33:11.654Z,27.28
2024-03-16T03:34:11.676Z,27.28
2024-03-16T03:35:11.665Z,27.26
2024-03-16T03:36:11.692Z,27.28
2024-03-16T03:37:11.813Z,27.29
2024-03-16T03:38:11.770Z,27.28
2024-03-16T03:39:11.792Z,27.24
2024-03-16T03:40:11.910Z,27.25
2024-03-16T03:41:11.944Z,27.24
2024-03-16T03:42:11.956Z,27.25
2024-03-16T03:43:12.074Z,27.26
2024-03-16T03:44:12.092Z,27.25
2024-03-16T03:45:12.238Z,27.26
2024-03-16T03:46:12.207Z,27.25
2024-03-16T03:47:12.186Z,27.24
2024-03-16T03:48:12.259Z,27.24
2024-03-16T03:49:12.819Z,27.25
2024-03-16T03:50:12.324Z,27.22
2024-03-16T03:51:12.320Z,27.24
2024-03-16T03:52:12.473Z,27.25
2024-03-16T03:53:12.425Z,27.22
2024-03-16T03:54:12.442Z,27.24
2024-03-16T03:55:12.535Z,27.25
2024-03-16T03:56:12.538Z,27.24
2024-03-16T03:57:12.605Z,27.25
2024-03-16T03:58:12.755Z,27.24
2024-03-16T03:59:12.738Z,27.24
2024-03-16T04:00:12.746Z,27.26
2024-03-16T04:01:12.914Z,27.24
2024-03-16T04:02:12.861Z,27.24
2024-03-16T04:03:12.893Z,27.25
2024-03-16T04:04:12.969Z,27.24
2024-03-16T04:05:12.923Z,27.22
2024-03-16T04:06:20.099Z,27.21
2024-03-16T04:07:20.110Z,27.21
2024-03-16T04:08:20.177Z,27.22
2024-03-16T04:09:20.076Z,27.22
2024-03-16T04:10:20.059Z,27.25
2024-03-16T04:11:20.123Z,27.24
2024-03-16T04:12:20.110Z,27.25
2024-03-16T04:13:20.093Z,27.24
2024-03-16T04:14:20.112Z,27.25
2024-03-16T04:15:20.132Z,27.21
2024-03-16T04:16:20.196Z,27.22
2024-03-16T04:17:20.128Z,27.25
2024-03-16T04:18:20.142Z,27.22
2024-03-16T04:19:20.254Z,27.22
2024-03-16T04:20:20.148Z,27.25
2024-03-16T04:21:20.142Z,27.22
2024-03-16T04:22:20.171Z,27.21
2024-03-16T04:23:20.117Z,27.24
2024-03-16T04:24:20.205Z,27.22
2024-03-16T04:25:20.153Z,27.22
2024-03-16T04:26:20.139Z,27.25
2024-03-16T04:27:20.143Z,27.22
2024-03-16T04:28:20.113Z,27.22
2024-03-16T04:29:20.086Z,27.22
2024-03-16T04:30:20.136Z,27.21
2024-03-16T04:31:27.334Z,27.19
2024-03-16T04:32:27.290Z,27.19
2024-03-16T04:33:27.304Z,27.19
2024-03-16T04:34:27.311Z,27.19
2024-03-16T04:35:27.317Z,27.22
2024-03-16T04:36:27.430Z,27.19
2024-03-16T04:37:27.290Z,27.22
2024-03-16T04:38:27.322Z,27.22
2024-03-16T04:39:27.315Z,27.21
2024-03-16T04:40:27.302Z,27.21
2024-03-16T04:41:27.764Z,27.19
2024-03-16T04:42:27.327Z,27.21
2024-03-16T04:43:27.497Z,27.22
2024-03-16T04:44:27.318Z,27.22
2024-03-16T04:45:27.354Z,27.21
2024-03-16T04:46:27.292Z,27.21
2024-03-16T04:47:27.314Z,27.24
2024-03-16T04:48:27.389Z,27.21
2024-03-16T04:49:27.278Z,27.24
2024-03-16T04:50:27.322Z,27.19
2024-03-16T04:51:27.375Z,27.21
2024-03-16T04:52:27.336Z,27.19
2024-03-16T04:53:27.316Z,27.21
2024-03-16T04:54:27.332Z,27.21
2024-03-16T04:55:27.292Z,27.19
2024-03-16T04:56:27.358Z,27.16
2024-03-16T04:57:27.323Z,27.19
2024-03-16T04:58:27.299Z,27.21
2024-03-16T04:59:27.280Z,27.19
2024-03-16T05:00:27.495Z,27.19
2024-03-16T05:01:27.572Z,27.21
2024-03-16T05:02:27.390Z,27.18
2024-03-16T05:03:27.473Z,27.21
2024-03-16T05:04:27.490Z,27.21
2024-03-16T05:05:27.557Z,27.19
2024-03-16T05:06:27.668Z,27.21
2024-03-16T05:07:27.651Z,27.21
2024-03-16T05:08:27.686Z,27.18
2024-03-16T05:09:27.775Z,27.19
2024-03-16T05:10:28.024Z,27.18
2024-03-16T05:11:27.883Z,27.21
2024-03-16T05:12:27.936Z,27.21
2024-03-16T05:13:29.616Z,27.19
2024-03-16T05:14:28.008Z,27.21
2024-03-16T05:15:28.004Z,27.18
2024-03-16T05:16:27.947Z,27.18
2024-03-16T05:17:27.953Z,27.19
2024-03-16T05:18:27.982Z,27.18
2024-03-16T05:19:27.949Z,27.19
2024-03-16T05:20:27.974Z,27.18
2024-03-16T05:21:27.984Z,27.19
2024-03-16T05:22:28.047Z,27.19
2024-03-16T05:23:28.000Z,27.18
2024-03-16T05:24:27.939Z,27.18
2024-03-16T05:25:27.962Z,27.16
2024-03-16T05:26:27.985Z,27.19
2024-03-16T05:27:28.053Z,27.16
2024-03-16T05:28:28.271Z,27.18
2024-03-16T05:29:27.979Z,27.19
2024-03-16T05:30:28.092Z,27.18
2024-03-16T05:31:27.987Z,27.16
2024-03-16T05:32:27.964Z,27.16
2024-03-16T05:33:27.985Z,27.19
2024-03-16T05:34:27.966Z,27.18
2024-03-16T05:35:27.984Z,27.16
2024-03-16T05:36:27.955Z,27.18
2024-03-16T05:37:30.813Z,27.16
2024-03-16T05:38:27.982Z,27.15
2024-03-16T05:39:28.012Z,27.16
2024-03-16T05:40:28.070Z,27.18
2024-03-16T05:41:28.000Z,27.19
2024-03-16T05:42:28.048Z,27.18
2024-03-16T05:43:27.984Z,27.19
2024-03-16T05:44:27.921Z,27.19
2024-03-16T05:45:28.059Z,27.21
2024-03-16T05:46:27.991Z,27.21
2024-03-16T05:47:28.001Z,27.19
2024-03-16T05:48:28.549Z,27.19
2024-03-16T05:49:28.342Z,27.21
2024-03-16T05:50:27.954Z,27.21
2024-03-16T05:51:28.012Z,27.21
2024-03-16T05:52:27.995Z,27.22
2024-03-16T05:53:28.079Z,27.22
2024-03-16T05:54:28.045Z,27.24
2024-03-16T05:55:27.989Z,27.24
2024-03-16T05:56:28.022Z,27.24
2024-03-16T05:57:28.043Z,27.29
2024-03-16T05:58:27.937Z,27.24
2024-03-16T05:59:28.025Z,27.28
2024-03-16T06:00:28.092Z,27.28
2024-03-16T06:01:28.757Z,27.29
2024-03-16T06:02:27.952Z,27.30
2024-03-16T06:03:28.033Z,27.30
2024-03-16T06:04:27.961Z,27.30
2024-03-16T06:05:28.029Z,27.29
2024-03-16T06:06:28.004Z,27.33
2024-03-16T06:07:27.971Z,27.33
2024-03-16T06:08:27.999Z,27.32
2024-03-16T06:09:28.025Z,27.36
2024-03-16T06:10:27.970Z,27.39
2024-03-16T06:11:28.112Z,27.42
2024-03-16T06:12:28.067Z,27.46
2024-03-16T06:13:28.009Z,27.54
2024-03-16T06:14:28.014Z,27.56
2024-03-16T06:15:28.018Z,27.63
2024-03-16T06:16:27.979Z,27.76
2024-03-16T06:17:28.092Z,27.79
2024-03-16T06:18:28.078Z,27.80
2024-03-16T06:19:28.014Z,27.94
2024-03-16T06:20:28.017Z,28.10
2024-03-16T06:21:28.029Z,28.04
2024-03-16T06:22:28.006Z,27.97
2024-03-16T06:23:28.062Z,27.90
2024-03-16T06:24:28.033Z,27.86
2024-03-16T06:25:28.030Z,27.82
2024-03-16T06:26:28.012Z,27.74
2024-03-16T06:27:28.009Z,27.76
2024-03-16T06:28:28.001Z,27.72
2024-03-16T06:29:27.991Z,27.67
2024-03-16T06:30:28.271Z,27.66
2024-03-16T06:31:28.516Z,27.64
2024-03-16T06:32:28.070Z,27.62
2024-03-16T06:33:28.010Z,27.57
2024-03-16T06:34:28.052Z,27.59
2024-03-16T06:35:28.078Z,27.54
2024-03-16T06:36:28.086Z,27.54
2024-03-16T06:37:28.013Z,27.53
2024-03-16T06:38:28.021Z,27.52
2024-03-16T06:39:28.030Z,27.52
2024-03-16T06:40:28.022Z,27.48
2024-03-16T06:41:28.047Z,27.48
2024-03-16T06:42:28.119Z,27.48
2024-03-16T06:43:28.025Z,27.45
2024-03-16T06:44:28.021Z,27.45
2024-03-16T06:45:28.209Z,27.46
2024-03-16T06:46:28.026Z,27.45
2024-03-16T06:47:28.000Z,27.43
2024-03-16T06:48:28.067Z,27.45
2024-03-16T06:49:28.036Z,27.40
2024-03-16T06:50:28.054Z,27.43
2024-03-16T06:51:28.117Z,27.43
2024-03-16T06:52:28.089Z,27.42
2024-03-16T06:53:28.070Z,27.39
2024-03-16T06:54:28.216Z,27.42
2024-03-16T06:55:28.193Z,27.42
2024-03-16T06:56:28.190Z,27.39
2024-03-16T06:57:28.285Z,27.39
2024-03-16T06:58:28.256Z,27.40
2024-03-16T06:59:28.384Z,27.42
2024-03-16T07:00:28.531Z,27.45
2024-03-16T07:01:28.468Z,27.45
2024-03-16T07:02:28.402Z,27.46
2024-03-16T07:03:28.590Z,27.46
2024-03-16T07:04:28.418Z,27.50
2024-03-16T07:05:28.441Z,27.50
2024-03-16T07:06:28.660Z,27.52
2024-03-16T07:07:28.510Z,27.56
2024-03-16T07:08:28.509Z,27.56
2024-03-16T07:09:29.557Z,27.57
2024-03-16T07:10:28.614Z,27.60
2024-03-16T07:11:28.569Z,27.63
2024-03-16T07:12:28.654Z,27.63
2024-03-16T07:13:28.598Z,27.64
2024-03-16T07:14:28.628Z,27.63
2024-03-16T07:15:28.729Z,27.66
2024-03-16T07:16:28.596Z,27.66
2024-03-16T07:17:28.754Z,27.67
2024-03-16T07:18:28.747Z,27.66
2024-03-16T07:19:28.657Z,27.66
2024-03-16T07:20:28.678Z,27.66
2024-03-16T07:22:28.744Z,27.66
2024-03-16T07:23:28.715Z,27.66
2024-03-16T07:24:28.792Z,27.67
2024-03-16T07:25:28.725Z,27.67
2024-03-16T07:26:28.736Z,27.66
2024-03-16T07:27:28.768Z,27.66
2024-03-16T07:28:28.754Z,27.67
2024-03-16T07:29:28.822Z,27.66
2024-03-16T07:30:28.857Z,27.64
2024-03-16T07:31:28.862Z,27.64
2024-03-16T07:32:28.835Z,27.64
2024-03-16T07:33:28.904Z,27.64
2024-03-16T07:34:28.919Z,27.64
2024-03-16T07:35:28.870Z,27.63
2024-03-16T07:36:28.914Z,27.64
2024-03-16T07:37:28.978Z,27.63
2024-03-16T07:38:28.893Z,27.64
2024-03-16T07:39:28.987Z,27.66
2024-03-16T07:40:29.035Z,27.64
2024-03-16T07:41:28.974Z,27.66
2024-03-16T07:42:29.011Z,27.66
2024-03-16T07:43:28.961Z,27.64
2024-03-16T07:44:29.033Z,27.62
2024-03-16T07:45:29.077Z,27.63
2024-03-16T07:46:29.002Z,27.60
2024-03-16T07:47:29.000Z,27.66
2024-03-16T07:48:29.312Z,27.66
2024-03-16T07:49:29.061Z,27.66
2024-03-16T07:50:29.079Z,27.66
2024-03-16T07:51:29.189Z,27.64
2024-03-16T07:52:29.129Z,27.60
2024-03-16T07:53:29.192Z,27.60
2024-03-16T07:54:29.238Z,27.62
2024-03-16T07:55:29.200Z,27.59
2024-03-16T07:56:29.252Z,27.60
2024-03-16T07:57:29.274Z,27.62
2024-03-16T07:58:29.285Z,27.62
2024-03-16T07:59:29.349Z,27.62
2024-03-16T08:00:29.441Z,27.64
2024-03-16T08:01:29.411Z,27.67
2024-03-16T08:02:29.354Z,27.73
2024-03-16T08:03:29.393Z,27.72
2024-03-16T08:04:29.362Z,27.73
2024-03-16T08:05:29.468Z,27.79
2024-03-16T08:06:29.447Z,27.79
2024-03-16T08:07:29.423Z,27.80
2024-03-16T08:08:29.535Z,27.84
2024-03-16T08:09:29.636Z,27.84
2024-03-16T08:10:29.770Z,27.86
2024-03-16T08:11:29.598Z,27.89
2024-03-16T08:12:31.780Z,27.90
2024-03-16T08:13:29.597Z,27.91
2024-03-16T08:14:29.595Z,27.96
2024-03-16T08:15:29.674Z,27.96
2024-03-16T08:16:29.682Z,27.99
2024-03-16T08:17:29.675Z,28.00
2024-03-16T08:18:29.778Z,28.03
2024-03-16T08:19:29.650Z,28.08
2024-03-16T08:20:29.632Z,28.10
2024-03-16T08:21:29.745Z,28.13
2024-03-16T08:22:29.732Z,28.15
2024-03-16T08:23:29.643Z,28.17
2024-03-16T08:24:29.755Z,28.23
2024-03-16T08:25:29.770Z,28.24
2024-03-16T08:26:29.698Z,28.27
2024-03-16T08:27:33.403Z,28.28
2024-03-16T08:28:30.703Z,28.33
2024-03-16T08:29:29.700Z,28.34
2024-03-16T08:30:29.756Z,28.41
2024-03-16T08:31:29.829Z,28.43
2024-03-16T08:32:29.749Z,28.44
2024-03-16T08:33:29.775Z,28.48
2024-03-16T08:34:29.771Z,28.47
2024-03-16T08:35:29.848Z,28.50
2024-03-16T08:36:29.727Z,28.54
2024-03-16T08:37:29.764Z,28.55
2024-03-16T08:38:29.760Z,28.62
2024-03-16T08:39:29.859Z,28.65
2024-03-16T08:40:29.736Z,28.66
2024-03-16T08:41:29.862Z,28.69
2024-03-16T08:42:29.802Z,28.72
2024-03-16T08:43:29.926Z,28.79
2024-03-16T08:44:51.313Z,28.78
2024-03-16T08:45:51.306Z,28.79
2024-03-16T08:46:51.263Z,28.81
2024-03-16T08:47:51.373Z,28.78
2024-03-16T08:48:51.397Z,28.75
2024-03-16T08:49:51.327Z,28.74
2024-03-16T08:50:51.300Z,28.68
2024-03-16T08:51:51.329Z,28.65
2024-03-16T08:52:51.329Z,28.64
2024-03-16T08:53:51.349Z,28.62
2024-03-16T08:54:51.488Z,28.62
2024-03-16T08:55:51.340Z,28.64
2024-03-16T08:56:51.350Z,28.66
2024-03-16T08:57:51.333Z,28.65
2024-03-16T08:58:51.275Z,28.66
2024-03-16T08:59:51.366Z,28.71
2024-03-16T09:00:51.340Z,28.71
2024-03-16T09:01:51.422Z,28.75
2024-03-16T09:02:51.300Z,28.78
2024-03-16T09:03:51.378Z,28.83
2024-03-16T09:04:52.672Z,28.85
2024-03-16T09:05:51.318Z,28.85
2024-03-16T09:06:51.362Z,28.86
2024-03-16T09:07:51.309Z,28.86
2024-03-16T09:08:51.305Z,28.91
2024-03-16T09:09:51.376Z,28.98
2024-03-16T09:10:51.319Z,29.02
2024-03-16T09:11:51.439Z,29.05
2024-03-16T09:12:51.361Z,29.15
2024-03-16T09:13:51.339Z,29.22
2024-03-16T09:14:51.346Z,29.26
2024-03-16T09:15:51.310Z,29.30
2024-03-16T09:16:51.359Z,29.33
2024-03-16T09:17:51.328Z,29.42
2024-03-16T09:18:51.358Z,29.43
2024-03-16T09:19:51.443Z,29.52
2024-03-16T09:20:51.390Z,29.54
2024-03-16T09:21:51.376Z,29.56
2024-03-16T09:22:51.332Z,29.57
2024-03-16T09:23:51.340Z,29.64
2024-03-16T09:24:51.380Z,29.67
2024-03-16T09:25:51.355Z,29.69
2024-03-16T09:26:51.333Z,29.76
2024-03-16T09:27:51.451Z,29.83
2024-03-16T09:28:51.482Z,29.81
2024-03-16T09:29:51.551Z,29.77
2024-03-16T09:30:55.021Z,29.76
2024-03-16T09:31:52.592Z,29.70
2024-03-16T09:32:51.675Z,29.66
2024-03-16T09:33:51.662Z,29.60
2024-03-16T09:34:51.620Z,29.53
2024-03-16T09:35:51.646Z,29.46
2024-03-16T09:36:51.640Z,29.39
2024-03-16T09:37:51.594Z,29.34
2024-03-16T09:38:51.612Z,29.30
2024-03-16T09:39:51.651Z,29.22
2024-03-16T09:40:51.630Z,29.19
2024-03-16T09:41:51.632Z,29.16
2024-03-16T09:42:51.681Z,29.12
2024-03-16T09:43:51.660Z,29.08
2024-03-16T09:44:51.666Z,29.03
2024-03-16T09:45:51.714Z,28.99
2024-03-16T09:46:51.665Z,28.94
2024-03-16T09:47:51.739Z,28.91
2024-03-16T09:48:51.800Z,28.91
2024-03-16T09:49:51.732Z,28.86
2024-03-16T09:50:51.762Z,28.83
2024-03-16T09:51:51.929Z,28.81
2024-03-16T09:52:51.836Z,28.76
2024-03-16T09:53:51.922Z,28.81
2024-03-16T09:54:52.022Z,28.81
2024-03-16T09:55:51.925Z,28.83
2024-03-16T09:56:53.066Z,28.83
2024-03-16T09:57:52.018Z,28.92
2024-03-16T09:58:52.059Z,28.95
2024-03-16T09:59:51.961Z,29.01
2024-03-16T10:00:52.005Z,29.03
2024-03-16T10:01:52.097Z,29.08
2024-03-16T10:02:52.025Z,29.13
2024-03-16T10:03:52.235Z,29.20
2024-03-16T10:04:52.134Z,29.22
2024-03-16T10:05:52.312Z,29.23
2024-03-16T10:06:52.319Z,29.22
2024-03-16T10:07:52.319Z,29.23
2024-03-16T10:08:52.955Z,29.26
2024-03-16T10:09:52.443Z,29.26
2024-03-16T10:10:52.444Z,29.30
2024-03-16T10:11:52.494Z,29.26
2024-03-16T10:12:52.573Z,29.27
2024-03-16T10:13:52.608Z,29.27
2024-03-16T10:14:52.665Z,29.29
2024-03-16T10:15:52.752Z,29.34
2024-03-16T10:16:52.789Z,29.33
2024-03-16T10:17:52.799Z,29.32
2024-03-16T10:18:52.908Z,29.33
2024-03-16T10:19:52.915Z,29.33
2024-03-16T10:20:53.008Z,29.36
2024-03-16T10:21:53.048Z,29.37
2024-03-16T10:22:53.079Z,29.40
2024-03-16T10:23:53.091Z,29.42
2024-03-16T10:24:53.167Z,29.45
2024-03-16T10:25:53.166Z,29.42
2024-03-16T10:26:53.248Z,29.42
2024-03-16T10:27:53.306Z,29.45
2024-03-16T10:28:53.348Z,29.46
2024-03-16T10:29:53.426Z,29.49
2024-03-16T10:30:53.524Z,29.50
2024-03-16T10:31:55.395Z,29.56
2024-03-16T10:32:53.612Z,29.59
2024-03-16T10:33:53.677Z,29.60
2024-03-16T10:34:53.734Z,29.67
2024-03-16T10:35:53.782Z,29.74
2024-03-16T10:36:53.953Z,29.80
2024-03-16T10:37:53.967Z,29.85
2024-03-16T10:38:53.965Z,29.90
2024-03-16T10:39:54.070Z,29.94
2024-03-16T10:40:54.006Z,30.00
2024-03-16T10:41:54.073Z,30.04
2024-03-16T10:42:54.095Z,30.10
2024-03-16T10:43:54.139Z,30.12
2024-03-16T10:44:56.723Z,30.18
2024-03-16T10:45:54.425Z,30.24
2024-03-16T10:46:54.429Z,30.27
2024-03-16T10:47:54.438Z,30.30
2024-03-16T10:48:54.441Z,30.32
2024-03-16T10:49:54.500Z,30.36
2024-03-16T10:50:57.530Z,30.35
2024-03-16T10:51:54.519Z,30.39
2024-03-16T10:52:54.499Z,30.39
2024-03-16T10:53:54.504Z,30.42
2024-03-16T10:54:54.476Z,30.39
2024-03-16T10:55:54.530Z,30.42
2024-03-16T10:56:57.258Z,30.46
2024-03-16T10:57:54.533Z,30.46
2024-03-16T10:58:54.503Z,30.43
2024-03-16T10:59:54.518Z,30.45
2024-03-16T11:00:54.537Z,30.46
2024-03-16T11:01:54.564Z,30.43
2024-03-16T11:02:56.898Z,30.45
2024-03-16T11:03:54.539Z,30.45
2024-03-16T11:04:54.551Z,30.49
2024-03-16T11:05:54.561Z,30.49
2024-03-16T11:06:54.571Z,30.54
2024-03-16T11:07:54.575Z,30.56
2024-03-16T11:08:54.595Z,30.59
2024-03-16T11:09:54.586Z,30.59
2024-03-16T11:10:54.657Z,30.61
2024-03-16T11:11:54.583Z,30.63
2024-03-16T11:12:54.641Z,30.65
2024-03-16T11:13:55.724Z,30.65
2024-03-16T11:14:54.623Z,30.63
2024-03-16T11:15:54.634Z,30.63
2024-03-16T11:16:54.650Z,30.65
2024-03-16T11:17:54.655Z,30.62
2024-03-16T11:18:54.636Z,30.59
2024-03-16T11:19:56.047Z,30.58
2024-03-16T11:20:54.659Z,30.55
2024-03-16T11:21:54.683Z,30.54
2024-03-16T11:22:54.681Z,30.51
2024-03-16T11:23:54.673Z,30.52
2024-03-16T11:24:54.681Z,30.55
2024-03-16T11:25:54.702Z,30.61
2024-03-16T11:26:54.700Z,30.63
2024-03-16T11:27:54.710Z,30.66
2024-03-16T11:28:54.734Z,30.66
2024-03-16T11:29:54.704Z,30.63
2024-03-16T11:30:54.694Z,30.58
2024-03-16T11:31:54.779Z,30.56
2024-03-16T11:32:54.747Z,30.49
2024-03-16T11:33:54.805Z,30.42
2024-03-16T11:34:54.779Z,30.41
2024-03-16T11:35:54.822Z,30.39
2024-03-16T11:36:54.822Z,30.36
2024-03-16T11:37:54.879Z,30.31
2024-03-16T11:38:54.914Z,30.28
2024-03-16T11:39:54.921Z,30.20
2024-03-16T11:40:54.983Z,30.11
2024-03-16T11:41:55.023Z,30.00
2024-03-16T11:42:55.044Z,29.96
2024-03-16T11:43:55.126Z,29.90
2024-03-16T11:44:55.179Z,29.81
2024-03-16T11:45:55.239Z,29.74
2024-03-16T11:46:55.302Z,29.69
2024-03-16T11:47:56.019Z,29.60
2024-03-16T11:48:55.491Z,29.56
2024-03-16T11:49:55.509Z,29.50
2024-03-16T11:50:55.592Z,29.47
2024-03-16T11:51:55.806Z,29.42
2024-03-16T11:52:55.723Z,29.42
2024-03-16T11:53:55.802Z,29.40
2024-03-16T11:54:55.859Z,29.37
2024-03-16T11:55:55.907Z,29.34
2024-03-16T11:56:55.924Z,29.33
2024-03-16T11:57:55.966Z,29.27
2024-03-16T11:58:55.993Z,29.26
2024-03-16T11:59:56.133Z,29.22
2024-03-16T12:00:57.702Z,29.22
2024-03-16T12:01:56.266Z,29.23
2024-03-16T12:02:56.124Z,29.22
2024-03-16T12:03:56.185Z,29.19
2024-03-16T12:04:56.115Z,29.19
2024-03-16T12:05:56.097Z,29.15
2024-03-16T12:06:56.097Z,29.12
2024-03-16T12:07:56.103Z,29.12
2024-03-16T12:08:56.122Z,29.10
2024-03-16T12:09:56.113Z,29.12
2024-03-16T12:10:56.186Z,29.09
2024-03-16T12:11:56.141Z,29.06
2024-03-16T12:12:56.129Z,29.05
2024-03-16T12:13:56.149Z,29.03
2024-03-16T12:14:56.100Z,29.05
2024-03-16T12:15:57.035Z,29.01
2024-03-16T12:16:56.103Z,29.01
2024-03-16T12:17:56.098Z,28.99
2024-03-16T12:18:56.105Z,28.96
2024-03-16T12:19:56.123Z,28.96
2024-03-16T12:20:56.114Z,28.98
2024-03-16T12:21:56.130Z,28.98
2024-03-16T12:22:56.139Z,28.98
2024-03-16T12:23:56.157Z,28.98
2024-03-16T12:24:56.150Z,28.94
2024-03-16T12:25:56.111Z,28.94
2024-03-16T12:26:56.105Z,28.89
2024-03-16T12:27:56.193Z,28.89
2024-03-16T12:28:56.153Z,28.88
2024-03-16T12:29:56.158Z,28.88
2024-03-16T12:30:56.158Z,28.88
2024-03-16T12:31:56.161Z,28.82
2024-03-16T12:32:56.179Z,28.85
2024-03-16T12:33:56.112Z,28.81
2024-03-16T12:34:56.133Z,28.83
2024-03-16T12:35:56.111Z,28.86
2024-03-16T12:36:56.209Z,28.89
2024-03-16T12:37:56.138Z,28.86
2024-03-16T12:38:56.145Z,28.92
2024-03-16T12:39:56.156Z,28.88
2024-03-16T12:40:56.118Z,28.86
2024-03-16T12:41:58.413Z,28.88
2024-03-16T12:42:56.154Z,28.85
2024-03-16T12:43:56.164Z,28.85
2024-03-16T12:44:56.155Z,28.88
2024-03-16T12:45:56.168Z,28.92
2024-03-16T12:46:56.152Z,28.94
2024-03-16T12:47:57.215Z,28.94
2024-03-16T12:48:56.164Z,28.98
2024-03-16T12:49:56.179Z,28.96
2024-03-16T12:50:56.199Z,28.98
2024-03-16T12:51:56.171Z,29.01
2024-03-16T12:52:56.160Z,29.05
2024-03-16T12:53:56.169Z,29.06